createdAt,value
2024-01-19T00:00:18.949Z,100805.44
2024-01-19T00:02:45.758Z,100808.25
2024-01-19T00:05:12.629Z,100799.47
2024-01-19T00:07:39.429Z,100808.66
2024-01-19T00:10:06.382Z,100818.97
2024-01-19T00:12:37.351Z,100822.09
2024-01-19T00:15:10.718Z,100772.63
2024-01-19T00:17:37.936Z,100814.97
2024-01-19T00:20:05.502Z,100827.81
2024-01-19T00:22:32.103Z,100822.31
2024-01-19T00:24:58.720Z,100825.25
2024-01-19T00:27:25.347Z,100832.47
2024-01-19T00:29:52.012Z,100838.00
2024-01-19T00:32:18.734Z,100789.56
2024-01-19T00:34:45.394Z,100833.41
2024-01-19T00:37:12.092Z,100831.94
2024-01-19T00:39:38.766Z,100832.63
2024-01-19T00:42:05.362Z,100806.13
2024-01-19T00:44:32.023Z,100817.50
2024-01-19T00:46:58.791Z,100821.91
2024-01-19T00:49:25.812Z,100792.06
2024-01-19T00:51:52.821Z,100812.44
2024-01-19T00:54:19.549Z,100811.81
2024-01-19T00:56:46.320Z,100814.84
2024-01-19T00:59:13.078Z,100810.09
2024-01-19T01:01:39.989Z,100820.00
2024-01-19T01:04:07.153Z,100829.34
2024-01-19T01:06:33.983Z,100829.97
2024-01-19T01:09:00.852Z,100837.97
2024-01-19T01:11:29.123Z,100833.66
2024-01-19T01:13:55.900Z,100823.19
2024-01-19T01:16:22.726Z,100853.44
2024-01-19T01:18:49.634Z,100810.44
2024-01-19T01:21:16.401Z,100856.22
2024-01-19T01:23:43.151Z,100864.13
2024-01-19T01:26:09.789Z,100867.97
2024-01-19T01:28:36.427Z,100878.91
2024-01-19T01:31:03.309Z,100886.72
2024-01-19T01:33:31.017Z,100903.94
2024-01-19T01:35:57.878Z,100920.03
2024-01-19T01:38:24.728Z,100905.28
2024-01-19T01:40:51.501Z,100901.44
2024-01-19T01:43:25.601Z,100871.22
2024-01-19T01:45:53.081Z,100861.72
2024-01-19T01:48:22.338Z,100869.53
2024-01-19T01:50:49.698Z,100872.75
2024-01-19T01:53:19.845Z,100867.25
2024-01-19T01:55:48.184Z,100868.06
2024-01-19T01:58:16.499Z,100874.66
2024-01-19T02:00:44.930Z,100837.94
2024-01-19T02:03:12.401Z,100876.41
2024-01-19T02:05:39.215Z,100887.59
2024-01-19T02:08:07.329Z,100874.91
2024-01-19T02:10:34.209Z,100833.75
2024-01-19T02:13:01.177Z,100867.97
2024-01-19T02:15:28.783Z,100867.03
2024-01-19T02:17:55.680Z,100827.97
2024-01-19T02:20:23.005Z,100860.56
2024-01-19T02:22:51.052Z,100860.41
2024-01-19T02:25:18.040Z,100860.94
2024-01-19T02:27:44.807Z,100817.72
2024-01-19T02:30:12.424Z,100853.50
2024-01-19T02:32:39.659Z,100864.22
2024-01-19T02:35:06.931Z,100867.25
2024-01-19T02:37:33.794Z,100875.50
2024-01-19T02:40:02.093Z,100863.66
2024-01-19T02:42:31.599Z,100861.63
2024-01-19T02:45:01.333Z,100827.38
2024-01-19T02:47:32.898Z,100859.56
2024-01-19T02:50:00.988Z,100842.19
2024-01-19T02:52:27.694Z,100869.25
2024-01-19T02:54:54.526Z,100876.34
2024-01-19T02:57:21.122Z,100882.91
2024-01-19T02:59:48.014Z,100884.81
2024-01-19T03:02:15.608Z,100851.28
2024-01-19T03:04:42.630Z,100875.59
2024-01-19T03:07:09.285Z,100852.16
2024-01-19T03:09:35.931Z,100879.97
2024-01-19T03:12:02.830Z,100880.59
2024-01-19T03:14:29.470Z,100889.31
2024-01-19T03:16:56.155Z,100890.53
2024-01-19T03:19:22.805Z,100903.00
2024-01-19T03:21:49.446Z,100910.53
2024-01-19T03:24:16.179Z,100912.97
2024-01-19T03:26:43.667Z,100900.91
2024-01-19T03:29:10.563Z,100907.69
2024-01-19T03:31:37.149Z,100862.50
2024-01-19T03:34:03.907Z,100871.84
2024-01-19T03:36:30.670Z,100914.78
2024-01-19T03:38:57.399Z,100899.50
2024-01-19T03:41:24.048Z,100859.84
2024-01-19T03:43:50.701Z,100898.13
2024-01-19T03:46:18.092Z,100914.72
2024-01-19T03:48:44.977Z,100894.50
2024-01-19T03:51:11.929Z,100896.88
2024-01-19T03:53:38.674Z,100901.53
2024-01-19T03:56:05.426Z,100901.59
2024-01-19T03:58:32.036Z,100887.59
2024-01-19T04:00:58.811Z,100897.22
2024-01-19T04:03:25.630Z,100856.38
2024-01-19T04:05:52.440Z,100905.28
2024-01-19T04:08:20.451Z,100900.75
2024-01-19T04:10:47.461Z,100919.13
2024-01-19T04:13:14.352Z,100908.91
2024-01-19T04:15:40.973Z,100927.75
2024-01-19T04:18:07.673Z,100909.00
2024-01-19T04:20:34.399Z,100924.50
2024-01-19T04:23:01.066Z,100924.25
2024-01-19T04:25:27.677Z,100915.59
2024-01-19T04:27:54.319Z,100914.25
2024-01-19T04:30:20.963Z,100871.00
2024-01-19T04:32:47.598Z,100922.44
2024-01-19T04:35:14.452Z,100943.81
2024-01-19T04:37:41.080Z,100927.69
2024-01-19T04:40:08.258Z,100937.94
2024-01-19T04:42:34.978Z,100941.84
2024-01-19T04:45:01.705Z,100937.56
2024-01-19T04:47:28.451Z,100932.41
2024-01-19T04:49:55.137Z,100902.81
2024-01-19T04:52:21.708Z,100948.19
2024-01-19T04:54:48.345Z,100888.91
2024-01-19T04:57:15.049Z,100956.34
2024-01-19T04:59:41.733Z,100953.84
2024-01-19T05:02:08.801Z,100968.22
2024-01-19T05:04:35.448Z,100970.69
2024-01-19T05:07:02.029Z,100895.56
2024-01-19T05:09:28.779Z,100967.00
2024-01-19T05:11:55.550Z,100973.88
2024-01-19T05:14:22.334Z,100977.78
2024-01-19T05:16:49.110Z,101016.50
2024-01-19T05:19:15.801Z,100994.59
2024-01-19T05:21:42.407Z,101007.47
2024-01-19T05:24:09.047Z,101000.13
2024-01-19T05:26:35.737Z,101008.06
2024-01-19T05:29:02.364Z,101006.72
2024-01-19T05:31:28.967Z,101034.22
2024-01-19T05:33:55.623Z,101024.03
2024-01-19T05:36:22.357Z,101053.59
2024-01-19T05:38:49.100Z,101023.53
2024-01-19T05:41:22.878Z,100971.88
2024-01-19T05:43:49.768Z,101024.59
2024-01-19T05:46:16.400Z,101046.50
2024-01-19T05:48:43.085Z,101036.56
2024-01-19T05:51:17.142Z,100998.44
2024-01-19T05:53:44.385Z,101011.75
2024-01-19T05:56:11.282Z,101002.22
2024-01-19T05:58:38.074Z,101040.38
2024-01-19T06:01:06.368Z,100997.63
2024-01-19T06:03:36.664Z,101064.03
2024-01-19T06:06:04.989Z,101029.25
2024-01-19T06:08:32.566Z,101076.25
2024-01-19T06:10:59.289Z,101073.66
2024-01-19T06:13:26.050Z,101078.69
2024-01-19T06:15:52.768Z,101091.28
2024-01-19T06:18:20.243Z,101087.38
2024-01-19T06:20:47.277Z,101079.63
2024-01-19T06:23:14.562Z,101092.81
2024-01-19T06:25:42.018Z,101115.22
2024-01-19T06:28:08.820Z,101114.88
2024-01-19T06:30:35.610Z,101124.69
2024-01-19T06:33:03.254Z,101121.84
2024-01-19T06:35:30.228Z,101142.53
2024-01-19T06:37:56.993Z,101152.16
2024-01-19T06:40:23.643Z,101115.72
2024-01-19T06:42:50.383Z,101148.69
2024-01-19T06:45:17.930Z,101118.69
2024-01-19T06:47:46.036Z,101128.13
2024-01-19T06:50:12.838Z,101165.13
2024-01-19T06:52:39.525Z,101168.91
2024-01-19T06:55:07.065Z,101127.19
2024-01-19T06:57:33.718Z,101176.69
2024-01-19T07:00:00.620Z,101174.38
2024-01-19T07:02:27.987Z,101174.63
2024-01-19T07:04:54.691Z,101174.53
2024-01-19T07:07:21.377Z,101184.47
2024-01-19T07:09:47.989Z,101187.38
2024-01-19T07:12:16.382Z,101191.75
2024-01-19T07:14:43.168Z,101190.63
2024-01-19T07:17:11.257Z,101193.53
2024-01-19T07:19:39.122Z,101198.03
2024-01-19T07:22:05.764Z,101185.91
2024-01-19T07:24:34.074Z,101195.25
2024-01-19T07:27:01.148Z,101189.53
2024-01-19T07:29:27.919Z,101194.22
2024-01-19T07:31:56.103Z,101196.47
2024-01-19T07:34:22.944Z,101206.13
2024-01-19T07:36:49.781Z,101194.63
2024-01-19T07:39:16.672Z,101208.34
2024-01-19T07:41:43.770Z,101204.75
2024-01-19T07:44:10.358Z,101216.41
2024-01-19T07:46:37.232Z,101216.28
2024-01-19T07:49:04.393Z,101218.56
2024-01-19T07:51:31.088Z,101237.84
2024-01-19T07:53:57.770Z,101244.44
2024-01-19T07:56:24.577Z,101228.44
2024-01-19T07:58:51.347Z,101259.81
2024-01-19T08:01:18.978Z,101247.41
2024-01-19T08:03:45.771Z,101265.69
2024-01-19T08:06:12.859Z,101225.69
2024-01-19T08:08:39.764Z,101283.81
2024-01-19T08:11:07.053Z,101259.72
2024-01-19T08:13:33.980Z,101264.78
2024-01-19T08:16:00.729Z,101276.06
2024-01-19T08:18:27.529Z,101276.91
2024-01-19T08:20:54.292Z,101286.50
2024-01-19T08:23:20.896Z,101277.94
2024-01-19T08:25:47.570Z,101286.47
2024-01-19T08:28:14.181Z,101297.34
2024-01-19T08:30:40.773Z,101296.56
2024-01-19T08:33:07.441Z,101296.09
2024-01-19T08:35:34.172Z,101304.25
2024-01-19T08:38:00.877Z,101304.88
2024-01-19T08:40:27.531Z,101301.94
2024-01-19T08:42:54.223Z,101315.47
2024-01-19T08:45:20.904Z,101326.06
2024-01-19T08:47:49.721Z,101328.09
2024-01-19T08:50:16.468Z,101319.16
2024-01-19T08:52:43.069Z,101330.63
2024-01-19T08:55:10.502Z,101327.06
2024-01-19T08:57:37.238Z,101314.84
2024-01-19T09:00:06.433Z,101326.91
2024-01-19T09:02:33.236Z,101330.25
2024-01-19T09:05:00.023Z,101322.13
2024-01-19T09:07:26.899Z,101326.56
2024-01-19T09:09:53.528Z,101334.50
2024-01-19T09:12:20.216Z,101338.84
2024-01-19T09:14:47.541Z,101343.03
2024-01-19T09:17:14.284Z,101250.97
2024-01-19T09:19:40.967Z,101355.00
2024-01-19T09:22:07.813Z,101351.56
2024-01-19T09:24:34.681Z,101360.16
2024-01-19T09:27:01.397Z,101374.19
2024-01-19T09:29:28.155Z,101341.63
2024-01-19T09:31:54.786Z,101374.78
2024-01-19T09:34:21.461Z,101324.13
2024-01-19T09:36:48.183Z,101393.44
2024-01-19T09:39:14.857Z,101395.72
2024-01-19T09:41:48.545Z,101400.34
2024-01-19T09:44:19.728Z,101402.94
2024-01-19T09:46:52.915Z,101412.69
2024-01-19T09:49:52.023Z,101410.69
2024-01-19T09:52:49.194Z,101421.50
2024-01-19T09:55:16.891Z,101422.50
2024-01-19T09:57:46.714Z,101413.59
2024-01-19T10:00:19.091Z,101421.06
2024-01-19T10:02:53.376Z,101423.06
2024-01-19T10:05:21.718Z,101416.56
2024-01-19T10:07:59.235Z,101425.69
2024-01-19T10:10:27.537Z,101414.91
2024-01-19T10:12:54.249Z,101414.00
2024-01-19T10:15:20.928Z,101414.88
2024-01-19T10:17:47.801Z,101405.47
2024-01-19T10:20:16.294Z,101428.59
2024-01-19T10:22:43.240Z,101424.81
2024-01-19T10:25:11.453Z,101426.75
2024-01-19T10:27:39.995Z,101420.09
2024-01-19T10:30:32.781Z,101436.13
2024-01-19T10:33:08.171Z,101383.34
2024-01-19T10:35:38.592Z,101444.28
2024-01-19T10:38:08.870Z,101427.66
2024-01-19T10:40:35.983Z,101432.38
2024-01-19T10:43:04.449Z,101394.53
2024-01-19T10:45:37.471Z,101425.22
2024-01-19T10:48:05.089Z,101429.38
2024-01-19T10:50:32.295Z,101441.03
2024-01-19T10:53:00.846Z,101467.75
2024-01-19T10:55:29.240Z,101462.13
2024-01-19T10:57:58.400Z,101447.81
2024-01-19T11:00:31.419Z,101451.97
2024-01-19T11:03:01.088Z,101441.72
2024-01-19T11:05:28.030Z,101453.13
2024-01-19T11:07:56.368Z,101409.41
2024-01-19T11:10:24.415Z,101452.00
2024-01-19T11:12:53.511Z,101450.13
2024-01-19T11:15:37.096Z,101441.88
2024-01-19T11:18:06.309Z,101457.03
2024-01-19T11:20:34.726Z,101462.19
2024-01-19T11:23:03.625Z,101427.78
2024-01-19T11:25:48.656Z,101476.59
2024-01-19T11:28:21.020Z,101481.56
2024-01-19T11:31:12.336Z,101474.66
2024-01-19T11:33:39.382Z,101463.47
2024-01-19T11:36:06.622Z,101470.50
2024-01-19T11:38:47.165Z,101479.81
2024-01-19T11:41:35.082Z,101489.31
2024-01-19T11:44:06.589Z,101497.56
2024-01-19T11:46:46.501Z,101503.94
2024-01-19T11:49:31.994Z,101501.59
2024-01-19T11:52:06.364Z,101515.56
2024-01-19T11:54:34.891Z,101471.09
2024-01-19T11:57:22.239Z,101512.84
2024-01-19T11:59:49.847Z,101509.56
2024-01-19T12:02:24.611Z,101493.94
2024-01-19T12:04:53.129Z,101503.75
2024-01-19T12:07:21.079Z,101498.44
2024-01-19T12:10:10.013Z,101448.94
2024-01-19T12:12:37.640Z,101459.72
2024-01-19T12:15:07.216Z,101496.94
2024-01-19T12:17:36.056Z,101501.88
2024-01-19T12:20:03.638Z,101490.00
2024-01-19T12:22:32.017Z,101507.31
2024-01-19T12:25:20.051Z,101504.44
2024-01-19T12:27:48.846Z,101500.50
2024-01-19T12:30:17.741Z,101510.13
2024-01-19T12:32:45.601Z,101503.94
2024-01-19T12:35:13.183Z,101504.19
2024-01-19T12:37:40.340Z,101463.66
2024-01-19T12:40:18.783Z,101496.16
2024-01-19T12:42:45.916Z,101445.38
2024-01-19T12:45:13.858Z,101496.25
2024-01-19T12:47:44.322Z,101456.81
2024-01-19T12:50:17.142Z,101513.09
2024-01-19T12:52:49.494Z,101481.66
2024-01-19T12:55:16.078Z,101502.22
2024-01-19T12:57:50.503Z,101521.50
2024-01-19T13:00:17.489Z,101515.00
2024-01-19T13:02:45.250Z,101518.56
2024-01-19T13:05:29.461Z,101498.50
2024-01-19T13:08:19.192Z,101517.66
2024-01-19T13:10:45.915Z,101510.06
2024-01-19T13:13:22.713Z,101523.88
2024-01-19T13:15:49.402Z,101523.81
2024-01-19T13:18:18.788Z,101473.75
2024-01-19T13:20:46.148Z,101516.94
2024-01-19T13:23:13.388Z,101505.78
2024-01-19T13:25:41.079Z,101520.19
2024-01-19T13:28:08.266Z,101473.38
2024-01-19T13:30:35.571Z,101529.25
2024-01-19T13:33:02.846Z,101470.69
2024-01-19T13:35:33.502Z,101531.75
2024-01-19T13:38:00.233Z,101534.69
2024-01-19T13:40:27.822Z,101540.84
2024-01-19T13:42:54.789Z,101510.38
2024-01-19T13:45:21.425Z,101530.53
2024-01-19T13:47:48.140Z,101481.94
2024-01-19T13:50:14.905Z,101527.97
2024-01-19T13:52:41.678Z,101492.22
2024-01-19T13:55:09.987Z,101517.94
2024-01-19T13:57:37.007Z,101542.22
2024-01-19T14:00:05.433Z,101536.84
2024-01-19T14:02:33.864Z,101550.34
2024-01-19T14:05:04.189Z,101482.31
2024-01-19T14:07:32.014Z,101545.97
2024-01-19T14:09:58.774Z,101547.63
2024-01-19T14:12:25.521Z,101545.56
2024-01-19T14:14:52.213Z,101549.03
2024-01-19T14:17:19.050Z,101543.94
2024-01-19T14:19:45.895Z,101538.25
2024-01-19T14:22:12.525Z,101552.06
2024-01-19T14:24:39.395Z,101549.00
2024-01-19T14:27:06.239Z,101548.09
2024-01-19T14:29:33.468Z,101549.47
2024-01-19T14:32:01.840Z,101546.38
2024-01-19T14:34:36.430Z,101527.50
2024-01-19T14:37:12.479Z,101561.97
2024-01-19T14:39:41.396Z,101543.84
2024-01-19T14:42:08.587Z,101547.22
2024-01-19T14:44:35.845Z,101519.50
2024-01-19T14:47:04.531Z,101532.75
2024-01-19T14:49:37.122Z,101560.28
2024-01-19T14:52:06.366Z,101555.84
2024-01-19T14:54:35.215Z,101571.16
2024-01-19T14:57:02.601Z,101568.63
2024-01-19T14:59:29.293Z,101565.97
2024-01-19T15:01:57.956Z,101560.50
2024-01-19T15:04:25.515Z,101513.44
2024-01-19T15:06:52.410Z,101579.63
2024-01-19T15:09:19.008Z,101583.69
2024-01-19T15:11:46.910Z,101562.00
2024-01-19T15:14:13.888Z,101581.69
2024-01-19T15:16:40.640Z,101578.53
2024-01-19T15:19:07.365Z,101585.66
2024-01-19T15:21:34.022Z,101590.34
2024-01-19T15:24:05.287Z,101594.66
2024-01-19T15:26:33.546Z,101587.75
2024-01-19T15:29:00.315Z,101591.03
2024-01-19T15:31:27.640Z,101594.91
2024-01-19T15:33:54.369Z,101589.28
2024-01-19T15:36:21.035Z,101593.31
2024-01-19T15:38:47.714Z,101593.41
2024-01-19T15:41:21.953Z,101592.91
2024-01-19T15:43:48.641Z,101545.84
2024-01-19T15:46:21.596Z,101597.59
2024-01-19T15:48:58.944Z,101609.94
2024-01-19T15:51:30.685Z,101611.56
2024-01-19T15:53:57.594Z,101615.91
2024-01-19T15:56:35.991Z,101598.09
2024-01-19T15:59:04.471Z,101615.38
2024-01-19T16:01:32.180Z,101614.41
2024-01-19T16:04:00.465Z,101616.16
2024-01-19T16:06:28.748Z,101518.59
2024-01-19T16:08:55.334Z,101598.16
2024-01-19T16:11:21.951Z,101629.50
2024-01-19T16:13:48.565Z,101626.81
2024-01-19T16:16:17.349Z,101624.03
2024-01-19T16:18:44.583Z,101627.00
2024-01-19T16:21:18.994Z,101639.25
2024-01-19T16:23:46.681Z,101626.81
2024-01-19T16:26:13.709Z,101620.63
2024-01-19T16:28:40.489Z,101643.06
2024-01-19T16:31:07.201Z,101611.44
2024-01-19T16:33:34.098Z,101626.44
2024-01-19T16:36:00.930Z,101612.16
2024-01-19T16:38:30.322Z,101598.72
2024-01-19T16:40:57.705Z,101632.97
2024-01-19T16:43:25.632Z,101623.09
2024-01-19T16:45:55.142Z,101651.56
2024-01-19T16:48:23.977Z,101623.59
2024-01-19T16:50:51.657Z,101650.59
2024-01-19T16:53:18.314Z,101633.13
2024-01-19T16:55:45.168Z,101593.88
2024-01-19T16:58:12.575Z,101654.53
2024-01-19T17:00:39.311Z,101653.09
2024-01-19T17:03:06.841Z,101651.06
2024-01-19T17:05:33.451Z,101651.78
2024-01-19T17:08:00.174Z,101652.38
2024-01-19T17:10:26.912Z,101634.34
2024-01-19T17:12:53.527Z,101645.22
2024-01-19T17:15:21.806Z,101636.13
2024-01-19T17:17:48.562Z,101648.34
2024-01-19T17:20:16.127Z,101577.28
2024-01-19T17:22:43.741Z,101638.44
2024-01-19T17:25:11.689Z,101626.88
2024-01-19T17:27:38.260Z,101638.91
2024-01-19T17:30:05.641Z,101656.06
2024-01-19T17:32:32.894Z,101656.19
2024-01-19T17:34:59.752Z,101612.38
2024-01-19T17:37:26.483Z,101657.13
2024-01-19T17:39:53.152Z,101655.56
2024-01-19T17:42:19.958Z,101651.41
2024-01-19T17:44:46.663Z,101671.97
2024-01-19T17:47:13.297Z,101656.00
2024-01-19T17:49:41.289Z,101673.38
2024-01-19T17:52:10.297Z,101676.97
2024-01-19T17:54:36.904Z,101677.03
2024-01-19T17:57:03.629Z,101665.53
2024-01-19T17:59:30.214Z,101639.50
2024-01-19T18:01:57.660Z,101664.53
2024-01-19T18:04:27.500Z,101673.31
2024-01-19T18:06:54.340Z,101677.56
2024-01-19T18:09:21.684Z,101666.28
2024-01-19T18:11:50.123Z,101671.81
2024-01-19T18:14:18.259Z,101701.72
2024-01-19T18:16:45.286Z,101701.28
2024-01-19T18:19:13.241Z,101705.19
2024-01-19T18:21:42.016Z,101704.97
2024-01-19T18:24:08.796Z,101708.88
2024-01-19T18:26:36.050Z,101708.63
2024-01-19T18:29:03.550Z,101702.09
2024-01-19T18:31:30.411Z,101715.06
2024-01-19T18:33:57.190Z,101723.63
2024-01-19T18:36:24.886Z,101720.72
2024-01-19T18:38:51.880Z,101728.28
2024-01-19T18:41:18.717Z,101721.44
2024-01-19T18:43:45.372Z,101655.94
2024-01-19T18:46:11.973Z,101671.41
2024-01-19T18:48:38.670Z,101723.53
2024-01-19T18:51:05.577Z,101712.38
2024-01-19T18:53:33.103Z,101720.94
2024-01-19T18:56:00.277Z,101721.91
2024-01-19T18:58:28.039Z,101712.69
2024-01-19T19:00:54.924Z,101688.47
2024-01-19T19:03:21.631Z,101667.38
2024-01-19T19:05:50.310Z,101730.38
2024-01-19T19:08:18.394Z,101754.00
2024-01-19T19:10:45.297Z,101691.16
2024-01-19T19:13:11.988Z,101707.97
2024-01-19T19:15:38.951Z,101732.03
2024-01-19T19:18:06.336Z,101727.94
2024-01-19T19:20:33.434Z,101740.31
2024-01-19T19:23:00.793Z,101733.09
2024-01-19T19:25:28.494Z,101726.56
2024-01-19T19:27:58.245Z,101733.88
2024-01-19T19:30:26.383Z,101743.69
2024-01-19T19:32:54.230Z,101731.22
2024-01-19T19:35:20.952Z,101746.59
2024-01-19T19:37:47.714Z,101704.03
2024-01-19T19:40:14.533Z,101738.03
2024-01-19T19:42:41.190Z,101727.56
2024-01-19T19:45:09.532Z,101753.91
2024-01-19T19:47:37.073Z,101743.13
2024-01-19T19:50:05.893Z,101743.72
2024-01-19T19:52:33.095Z,101697.06
2024-01-19T19:54:59.768Z,101757.28
2024-01-19T19:57:26.391Z,101753.31
2024-01-19T19:59:53.871Z,101753.78
2024-01-19T20:02:20.572Z,101765.28
2024-01-19T20:04:47.343Z,101759.50
2024-01-19T20:07:13.911Z,101773.53
2024-01-19T20:09:40.661Z,101771.56
2024-01-19T20:12:07.913Z,101765.50
2024-01-19T20:14:35.047Z,101759.38
2024-01-19T20:17:02.067Z,101755.25
2024-01-19T20:19:29.032Z,101768.09
2024-01-19T20:21:55.795Z,101776.75
2024-01-19T20:24:22.600Z,101783.59
2024-01-19T20:26:49.998Z,101791.66
2024-01-19T20:29:17.072Z,101785.81
2024-01-19T20:31:43.896Z,101790.72
2024-01-19T20:34:11.020Z,101790.06
2024-01-19T20:36:38.073Z,101786.38
2024-01-19T20:39:04.702Z,101780.03
2024-01-19T20:41:34.585Z,101784.63
2024-01-19T20:44:01.364Z,101800.47
2024-01-19T20:46:28.063Z,101800.00
2024-01-19T20:48:54.691Z,101804.94
2024-01-19T20:51:21.500Z,101709.94
2024-01-19T20:53:48.707Z,101798.38
2024-01-19T20:56:15.500Z,101794.19
2024-01-19T20:58:42.325Z,101818.66
2024-01-19T21:01:11.082Z,101803.78
2024-01-19T21:03:37.953Z,101810.22
2024-01-19T21:06:05.510Z,101816.66
2024-01-19T21:08:32.469Z,101812.03
2024-01-19T21:11:00.319Z,101833.13
2024-01-19T21:13:28.753Z,101826.09
2024-01-19T21:15:55.625Z,101800.56
2024-01-19T21:18:23.010Z,101818.09
2024-01-19T21:20:50.317Z,101839.50
2024-01-19T21:23:17.172Z,101799.34
2024-01-19T21:25:43.830Z,101817.53
2024-01-19T21:28:10.487Z,101829.84
2024-01-19T21:30:37.262Z,101839.34
2024-01-19T21:33:04.227Z,101832.28
2024-01-19T21:35:30.870Z,101827.78
2024-01-19T21:37:57.564Z,101807.31
2024-01-19T21:40:25.294Z,101817.97
2024-01-19T21:42:52.500Z,101839.91
2024-01-19T21:45:19.199Z,101854.22
2024-01-19T21:47:46.352Z,101837.56
2024-01-19T21:50:13.804Z,101841.00
2024-01-19T21:52:42.973Z,101851.09
2024-01-19T21:55:10.731Z,101834.88
2024-01-19T21:57:37.451Z,101853.22
2024-01-19T22:00:05.213Z,101848.28
2024-01-19T22:02:32.178Z,101842.69
2024-01-19T22:04:59.186Z,101855.09
2024-01-19T22:07:25.879Z,101836.00
2024-01-19T22:09:52.562Z,101862.91
2024-01-19T22:12:19.232Z,101852.88
2024-01-19T22:14:45.875Z,101864.75
2024-01-19T22:17:12.510Z,101874.91
2024-01-19T22:19:39.199Z,101870.97
2024-01-19T22:22:05.798Z,101889.44
2024-01-19T22:24:32.438Z,101865.41
2024-01-19T22:26:59.067Z,101875.13
2024-01-19T22:29:27.827Z,101882.09
2024-01-19T22:31:54.504Z,101883.38
2024-01-19T22:34:23.217Z,101882.16
2024-01-19T22:36:51.192Z,101893.91
2024-01-19T22:39:18.215Z,101859.94
2024-01-19T22:41:44.912Z,101869.00
2024-01-19T22:44:11.690Z,101901.81
2024-01-19T22:46:38.753Z,101839.25
2024-01-19T22:49:05.539Z,101894.47
2024-01-19T22:51:32.703Z,101857.13
2024-01-19T22:53:59.881Z,101894.75
2024-01-19T22:56:26.642Z,101901.94
2024-01-19T22:58:53.460Z,101909.88
2024-01-19T23:01:21.389Z,101907.47
2024-01-19T23:03:48.263Z,101916.19
2024-01-19T23:06:15.034Z,101913.97
2024-01-19T23:08:41.810Z,101910.53
2024-01-19T23:11:11.794Z,101911.66
2024-01-19T23:13:39.344Z,101923.81
2024-01-19T23:16:09.727Z,101904.09
2024-01-19T23:18:36.424Z,101926.34
2024-01-19T23:21:03.377Z,101921.84
2024-01-19T23:23:32.039Z,101930.75
2024-01-19T23:25:58.982Z,101916.91
2024-01-19T23:28:25.658Z,101907.53
2024-01-19T23:30:52.241Z,101919.75
2024-01-19T23:33:19.755Z,101919.75
2024-01-19T23:35:46.497Z,101944.25
2024-01-19T23:38:13.248Z,101809.22
2024-01-19T23:40:40.112Z,101935.31
2024-01-19T23:43:06.840Z,101948.81
2024-01-19T23:45:33.556Z,101942.38
2024-01-19T23:48:03.732Z,101938.72
2024-01-19T23:50:30.800Z,101957.47
2024-01-19T23:52:57.587Z,101924.25
2024-01-19T23:55:24.268Z,101926.41
2024-01-19T23:57:50.914Z,101922.66
